• Join FlightAware (Why Join?)
  • Login
  • US Flag 
11:55AM EDT


 

Airport Tracker/Info


-or-


 

Live Flight TrackerFlight Track Log ✈ N319EE ✈ 18-Jun-2014 ✈ KBGM - KROC

Flight Track Log - Related Links

Times and Time Zones

All times are in EDT time to prevent confusion due to time zone crossing. See the N319EE flight status page for this flight to view local times or setup timezone preferences in your user account.

Time Position Orientation Groundspeed Altitude Reporting Facility
EDT Latitude Longitude Course Direction KTS MPH feet Rate Location/Type
03:52PM 42.2342 -76.0194 308° West 164 189 2,800  Level New York Center
03:53PM 42.2567 -76.0586 308° West 206 237 4,200 1,980 Climbing Cleveland Center
03:54PM 42.2803 -76.0964 310° West 150 173 6,300 1,740 Climbing Cleveland Center
03:55PM 42.3094 -76.1475 308° West 165 190 7,900 1,200 Climbing Cleveland Center
03:56PM 42.3442 -76.2114 306° West 201 231 8,800 960 Climbing Cleveland Center
03:57PM 42.3758 -76.2703 306° West 199 229 9,900 480 Climbing Cleveland Center
03:58PM 42.4169 -76.3461 306° West 209 241 9,900  Level Cleveland Center
03:59PM 42.4511 -76.4089 306° West 210 242 9,900  Level Cleveland Center
04:00PM 42.4850 -76.4719 306° West 210 242 9,900  Level Cleveland Center
04:01PM 42.5186 -76.5333 307° West 208 239 9,900  Level Cleveland Center
04:02PM 42.5519 -76.5961 306° West 207 238 9,900  Level Cleveland Center
04:03PM 42.5850 -76.6583 306° West 206 237 9,900  Level Cleveland Center
04:04PM 42.6264 -76.7344 306° West 206 237 9,900  Level Cleveland Center
04:05PM 42.6481 -76.7764 305° West 208 239 10,000  Climbing Cleveland Center
04:05PM 42.6603 -76.7975 308° West 206 237 9,900 -240 Descending Cleveland Center
04:06PM 42.6819 -76.8394 305° West 207 238 9,800 -540 Descending Cleveland Center
04:06PM 42.6939 -76.8619 306° West 207 238 9,400 -1,020 Descending Cleveland Center
04:07PM 42.7189 -76.9092 306° West 228 262 8,800 -1,080 Descending Cleveland Center
04:07PM 42.7319 -76.9331 307° West 225 259 8,300 -1,020 Descending Cleveland Center
04:08PM 42.7575 -76.9850 304° West 247 284 7,800 -1,020 Descending Cleveland Center
04:08PM 42.7719 -77.0097 309° West 242 278 7,300 -1,200 Descending Cleveland Center
04:09PM 42.7997 -77.0619 306° West 254 292 6,600 -1,200 Descending Cleveland Center
04:09PM 42.8133 -77.0869 307° West 249 287 6,100 -1,380 Descending Cleveland Center
04:10PM 42.8517 -77.1469 311° West 255 293 5,100 -1,380 Descending Cleveland Center
04:10PM 42.8697 -77.1708 316° Northwest 250 288 4,700 -1,020 Descending Cleveland Center
04:11PM 42.9025 -77.2092 319° Northwest 246 283 4,100 -720 Descending Cleveland Center
04:11PM 42.9203 -77.2328 316° Northwest 250 288 4,000 -120 Descending Cleveland Center
04:12PM 42.9492 -77.2703 316° Northwest 232 267 4,000  Level Cleveland Center
04:12PM 42.9669 -77.2889 323° Northwest 234 269 4,000  Level Cleveland Center
04:13PM 43.0019 -77.3328 317° Northwest 215 247 4,000 -300 Level Cleveland Center
04:13PM 43.0122 -77.3419 327° Northwest 222 255 3,700 -1,380 Descending Cleveland Center
04:14PM 43.0533 -77.3897 320° Northwest 246 283 2,600 -1,200 Descending Cleveland Center
04:14PM 43.0631 -77.4006 321° Northwest 231 266 2,500 -300 Descending Cleveland Center
04:15PM 43.1028 -77.4458 320° Northwest 225 259 2,300 -240 Descending Cleveland Center
04:15PM 43.1122 -77.4556 323° Northwest 234 269 2,300  Level Cleveland Center
04:16PM 43.1264 -77.5042 292° West 173 199 2,300  Level Cleveland Center
04:16PM 43.1269 -77.5281 272° West 193 222 2,300 -420 Level Cleveland Center
04:17PM 43.1261 -77.5650 268° West 149 171 1,900 -600 Descending Cleveland Center
04:17PM 43.1261 -77.5839 270° West 165 190 1,700 -720 Descending Cleveland Center
04:18PM 43.1228 -77.6192 263° West 146 168 1,200 -780 Descending Cleveland Center
04:18PM 43.1244 -77.6392 277° West 154 177 900 -420 Descending Cleveland Center
04:19PM 43.1219 -77.6858 266° West 149 171 600 -300 Descending Cleveland Center
04:21PM 43.1167 -77.6667 90° East  Level FlightAware Approximate